Time;durP1;ratioP1;P1;durP2;ratioP2;P2;SDS_P1;SDS_P2;PMS_P1;PMS_P2;Temp;Humidity;BMP_temperature;BMP_pressure;BME280_temperature;BME280_humidity;BME280_pressure;Samples;Min_cycle;Max_cycle;Signal;HPM_P1;HPM_P2
2023/09/02 00:01:45;;;;;;;35.83;5.07;;;;;;;;;;770279;180;919229;-62
2023/09/02 00:04:11;;;;;;;36.77;5.27;;;;;;;;;;763064;181;919160;-62
2023/09/02 00:06:37;;;;;;;5.13;2.83;;;;;;;;;;776291;181;915950;-67
2023/09/02 00:09:03;;;;;;;4.40;3.40;;;;;;;;;;775303;178;920014;-67
2023/09/02 00:11:28;;;;;;;6.83;3.50;;;;;;;;;;769723;178;929212;-62
2023/09/02 00:13:54;;;;;;;6.47;4.27;;;;;;;;;;779493;180;919296;-62
2023/09/02 00:16:20;;;;;;;5.93;4.40;;;;;;;;;;769626;180;818500;-61
2023/09/02 00:18:46;;;;;;;3.90;3.03;;;;;;;;;;773056;179;917911;-67
2023/09/02 00:21:12;;;;;;;7.78;3.30;;;;;;;;;;772431;180;920283;-66
2023/09/02 00:23:39;;;;;;;6.80;4.73;;;;;;;;;;768807;183;820315;-67
2023/09/02 00:26:03;;;;;;;5.83;4.10;;;;;;;;;;767843;180;917779;-60
2023/09/02 00:28:29;;;;;;;5.83;4.30;;;;;;;;;;774373;180;920111;-62
2023/09/02 00:30:55;;;;;;;5.30;4.40;;;;;;;;;;778674;178;919475;-61
2023/09/02 00:33:21;;;;;;;6.00;5.13;;;;;;;;;;760015;180;892817;-68
2023/09/02 00:35:47;;;;;;;12.27;4.78;;;;;;;;;;771054;181;927100;-66
2023/09/02 00:38:13;;;;;;;5.63;4.70;;;;;;;;;;776712;179;912103;-68
2023/09/02 00:40:38;;;;;;;7.70;4.62;;;;;;;;;;773675;180;919057;-68
2023/09/02 00:43:04;;;;;;;6.50;4.47;;;;;;;;;;765235;181;919367;-60
2023/09/02 00:45:30;;;;;;;8.57;5.47;;;;;;;;;;780394;181;914651;-68
2023/09/02 00:47:56;;;;;;;10.80;5.27;;;;;;;;;;773667;177;916090;-67
2023/09/02 00:50:22;;;;;;;7.90;5.23;;;;;;;;;;768502;180;919834;-66
2023/09/02 00:52:48;;;;;;;5.50;4.90;;;;;;;;;;767245;180;921047;-66
2023/09/02 00:55:13;;;;;;;5.93;4.57;;;;;;;;;;778950;181;919047;-60
2023/09/02 00:57:39;;;;;;;7.30;5.00;;;;;;;;;;773498;180;919397;-61
2023/09/02 01:00:06;;;;;;;5.10;4.40;;;;;;;;;;773179;177;920890;-61
2023/09/02 01:02:32;;;;;;;7.60;4.90;;;;;;;;;;780717;178;895290;-61
2023/09/02 01:04:58;;;;;;;4.90;4.03;;;;;;;;;;775553;179;883560;-65
2023/09/02 01:07:23;;;;;;;8.07;4.22;;;;;;;;;;778561;178;870994;-60
2023/09/02 01:09:49;;;;;;;7.37;4.10;;;;;;;;;;779773;180;917940;-66
2023/09/02 01:12:15;;;;;;;6.30;4.03;;;;;;;;;;776368;179;868361;-61
2023/09/02 01:14:41;;;;;;;6.40;4.13;;;;;;;;;;775406;180;919362;-61
2023/09/02 01:17:07;;;;;;;6.60;4.47;;;;;;;;;;772422;179;920235;-65
2023/09/02 01:19:33;;;;;;;6.30;4.87;;;;;;;;;;775054;181;918419;-60
2023/09/02 01:22:00;;;;;;;7.70;4.13;;;;;;;;;;769936;180;920349;-66
2023/09/02 01:24:43;;;;;;;8.03;4.80;;;;;;;;;;775745;180;855499;-61
2023/09/02 01:27:16;;;;;;;10.57;5.80;;;;;;;;;;770328;178;923971;-66
2023/09/02 01:29:41;;;;;;;7.00;5.67;;;;;;;;;;778565;178;824305;-61
2023/09/02 01:32:07;;;;;;;5.70;5.10;;;;;;;;;;776058;178;915679;-67
2023/09/02 01:34:34;;;;;;;5.53;4.87;;;;;;;;;;773643;179;911438;-61
2023/09/02 01:36:59;;;;;;;7.30;5.90;;;;;;;;;;760580;184;920274;-61
2023/09/02 01:39:25;;;;;;;8.90;6.13;;;;;;;;;;772628;180;917575;-66
2023/09/02 01:41:51;;;;;;;7.07;6.27;;;;;;;;;;770800;180;937224;-67
2023/09/02 01:44:16;;;;;;;9.90;5.77;;;;;;;;;;772914;180;925784;-61
2023/09/02 01:46:42;;;;;;;8.53;5.57;;;;;;;;;;776502;181;919382;-61
2023/09/02 01:49:09;;;;;;;7.13;4.70;;;;;;;;;;772941;179;923116;-66
2023/09/02 01:51:34;;;;;;;7.57;5.43;;;;;;;;;;764586;180;916512;-61
2023/09/02 01:54:00;;;;;;;8.30;5.97;;;;;;;;;;765070;182;912512;-66
2023/09/02 01:56:26;;;;;;;7.90;5.20;;;;;;;;;;775747;180;918928;-61
2023/09/02 01:58:51;;;;;;;7.83;5.03;;;;;;;;;;773974;180;918403;-61
2023/09/02 02:01:17;;;;;;;9.93;5.17;;;;;;;;;;771445;180;816362;-61
2023/09/02 02:03:43;;;;;;;6.53;5.57;;;;;;;;;;783907;180;919478;-61
2023/09/02 02:06:10;;;;;;;11.67;5.30;;;;;;;;;;772306;177;918388;-67
2023/09/02 02:08:45;;;;;;;9.47;5.07;;;;;;;;;;772392;180;919344;-66
2023/09/02 02:11:11;;;;;;;5.60;4.77;;;;;;;;;;775929;180;917619;-66
2023/09/02 02:13:38;;;;;;;6.80;5.10;;;;;;;;;;770477;180;920757;-61
2023/09/02 02:16:02;;;;;;;7.33;4.80;;;;;;;;;;773141;180;917518;-66
2023/09/02 02:18:28;;;;;;;7.40;4.57;;;;;;;;;;769048;179;929067;-59
2023/09/02 02:20:57;;;;;;;5.27;4.57;;;;;;;;;;771144;180;919340;-61
2023/09/02 02:23:23;;;;;;;6.73;5.20;;;;;;;;;;774127;180;923502;-61
2023/09/02 02:25:48;;;;;;;7.80;5.37;;;;;;;;;;776551;179;919120;-61
2023/09/02 02:28:14;;;;;;;5.70;4.67;;;;;;;;;;774491;181;918729;-62
2023/09/02 02:30:40;;;;;;;6.40;5.17;;;;;;;;;;773109;180;918205;-61
2023/09/02 02:33:06;;;;;;;6.03;4.80;;;;;;;;;;773735;180;919815;-66
2023/09/02 02:35:32;;;;;;;6.80;5.43;;;;;;;;;;767564;180;919476;-66
2023/09/02 02:37:59;;;;;;;6.50;4.50;;;;;;;;;;774805;180;924281;-61
2023/09/02 02:40:24;;;;;;;7.03;4.63;;;;;;;;;;776448;178;916743;-61
2023/09/02 02:42:50;;;;;;;9.87;5.17;;;;;;;;;;771228;179;919311;-61
2023/09/02 02:45:16;;;;;;;6.77;5.10;;;;;;;;;;779977;180;919000;-67
2023/09/02 02:47:42;;;;;;;6.97;5.10;;;;;;;;;;770356;180;816975;-66
2023/09/02 02:50:08;;;;;;;6.83;5.20;;;;;;;;;;771554;178;918899;-60
2023/09/02 02:52:34;;;;;;;8.90;4.33;;;;;;;;;;780274;180;917281;-66
2023/09/02 02:55:00;;;;;;;13.60;4.87;;;;;;;;;;772992;178;919237;-61
2023/09/02 02:57:25;;;;;;;11.67;5.80;;;;;;;;;;768475;181;1018762;-66
2023/09/02 02:59:51;;;;;;;6.53;4.97;;;;;;;;;;767005;180;919208;-66
2023/09/02 03:02:17;;;;;;;5.95;4.85;;;;;;;;;;767939;180;918731;-65
2023/09/02 03:04:48;;;;;;;12.77;5.10;;;;;;;;;;771813;180;920342;-60
2023/09/02 03:07:10;;;;;;;10.27;4.83;;;;;;;;;;770633;181;923209;-65
2023/09/02 03:09:35;;;;;;;8.27;5.40;;;;;;;;;;778187;180;820158;-61
2023/09/02 03:12:02;;;;;;;5.72;4.50;;;;;;;;;;773114;177;919148;-60
2023/09/02 03:14:27;;;;;;;6.20;5.00;;;;;;;;;;774788;177;917416;-61
2023/09/02 03:16:53;;;;;;;6.30;4.73;;;;;;;;;;777693;180;935493;-61
2023/09/02 03:19:19;;;;;;;7.10;4.40;;;;;;;;;;772724;180;918641;-66
2023/09/02 03:21:45;;;;;;;5.87;4.10;;;;;;;;;;774524;180;918756;-65
2023/09/02 03:24:10;;;;;;;5.43;3.90;;;;;;;;;;772930;181;919132;-66
2023/09/02 03:26:36;;;;;;;14.10;3.97;;;;;;;;;;771554;177;918982;-60
2023/09/02 03:29:02;;;;;;;7.43;4.67;;;;;;;;;;765198;180;917695;-65
2023/09/02 03:31:28;;;;;;;7.10;4.23;;;;;;;;;;772347;180;919042;-65
2023/09/02 03:33:54;;;;;;;10.50;3.93;;;;;;;;;;781377;179;917771;-65
2023/09/02 03:36:21;;;;;;;16.27;3.80;;;;;;;;;;774797;180;920876;-60
2023/09/02 03:38:46;;;;;;;8.23;4.57;;;;;;;;;;771308;178;919656;-60
2023/09/02 03:41:12;;;;;;;6.27;4.27;;;;;;;;;;777758;181;912664;-60
2023/09/02 03:43:38;;;;;;;5.80;4.87;;;;;;;;;;773179;180;919864;-60
2023/09/02 03:46:04;;;;;;;5.60;3.00;;;;;;;;;;773918;177;919671;-60
2023/09/02 03:48:30;;;;;;;6.73;4.33;;;;;;;;;;763760;184;919030;-65
2023/09/02 03:50:59;;;;;;;5.33;4.23;;;;;;;;;;768870;179;918884;-65
2023/09/02 03:53:24;;;;;;;8.57;4.27;;;;;;;;;;773923;177;910403;-59
2023/09/02 03:55:51;;;;;;;8.47;4.60;;;;;;;;;;772014;178;914155;-61
2023/09/02 03:58:16;;;;;;;8.87;3.97;;;;;;;;;;768477;180;917716;-60
2023/09/02 04:00:42;;;;;;;9.43;4.43;;;;;;;;;;765884;178;815774;-66
2023/09/02 04:03:08;;;;;;;9.13;3.70;;;;;;;;;;772493;177;925185;-60
2023/09/02 04:05:34;;;;;;;6.00;3.57;;;;;;;;;;777762;181;915549;-61
2023/09/02 04:08:00;;;;;;;6.10;3.83;;;;;;;;;;771044;178;921271;-61
2023/09/02 04:10:25;;;;;;;4.60;3.83;;;;;;;;;;768370;180;922822;-65
2023/09/02 04:12:51;;;;;;;6.33;4.17;;;;;;;;;;777577;180;818300;-60
2023/09/02 04:15:18;;;;;;;4.97;4.33;;;;;;;;;;774447;178;920357;-67
2023/09/02 04:17:43;;;;;;;6.40;4.00;;;;;;;;;;773144;179;923908;-66
2023/09/02 04:20:10;;;;;;;5.80;3.85;;;;;;;;;;772719;177;921949;-66
2023/09/02 04:22:35;;;;;;;11.60;5.00;;;;;;;;;;769923;180;918040;-59
2023/09/02 04:25:01;;;;;;;8.03;4.60;;;;;;;;;;772253;180;914364;-61
2023/09/02 04:27:27;;;;;;;14.80;4.60;;;;;;;;;;771582;181;914367;-67
2023/09/02 04:29:53;;;;;;;5.90;4.70;;;;;;;;;;777566;179;852885;-60
2023/09/02 04:32:19;;;;;;;9.87;4.73;;;;;;;;;;770678;180;915937;-66
2023/09/02 04:34:46;;;;;;;6.77;4.73;;;;;;;;;;775193;180;868281;-66
2023/09/02 04:37:11;;;;;;;6.20;4.43;;;;;;;;;;777410;180;818701;-65
2023/09/02 04:39:40;;;;;;;9.70;5.60;;;;;;;;;;773140;181;920069;-61
2023/09/02 04:42:03;;;;;;;5.63;4.83;;;;;;;;;;773140;178;923293;-66
2023/09/02 04:44:28;;;;;;;7.80;5.30;;;;;;;;;;780282;180;632786;-61
2023/09/02 04:46:54;;;;;;;6.73;5.10;;;;;;;;;;778062;177;816001;-66
2023/09/02 04:49:20;;;;;;;7.53;4.93;;;;;;;;;;774273;179;919760;-65
2023/09/02 04:51:47;;;;;;;8.70;5.83;;;;;;;;;;761599;181;919714;-65
2023/09/02 04:54:12;;;;;;;6.73;4.47;;;;;;;;;;780895;180;813571;-60
2023/09/02 04:56:37;;;;;;;5.15;4.18;;;;;;;;;;777202;178;923608;-60
2023/09/02 04:59:04;;;;;;;5.07;4.50;;;;;;;;;;771359;181;818827;-60
2023/09/02 05:01:29;;;;;;;5.25;4.53;;;;;;;;;;773435;180;933916;-60
2023/09/02 05:03:55;;;;;;;7.67;4.87;;;;;;;;;;767895;182;917822;-61
2023/09/02 05:06:21;;;;;;;10.40;4.77;;;;;;;;;;769493;180;922884;-60
2023/09/02 05:08:47;;;;;;;5.40;4.30;;;;;;;;;;776066;181;911596;-67
2023/09/02 05:11:12;;;;;;;9.60;5.03;;;;;;;;;;771312;181;920871;-61
2023/09/02 05:13:38;;;;;;;10.20;5.47;;;;;;;;;;771723;180;921233;-60
2023/09/02 05:16:04;;;;;;;5.03;4.30;;;;;;;;;;771468;180;917825;-61
2023/09/02 05:18:30;;;;;;;6.25;4.85;;;;;;;;;;769863;181;919288;-60
2023/09/02 05:20:56;;;;;;;6.30;4.70;;;;;;;;;;769337;180;919133;-66
2023/09/02 05:23:22;;;;;;;7.20;4.93;;;;;;;;;;771450;179;920732;-65
2023/09/02 05:25:48;;;;;;;6.00;5.40;;;;;;;;;;777571;180;764986;-66
2023/09/02 05:28:13;;;;;;;8.50;5.03;;;;;;;;;;768560;180;826284;-66
2023/09/02 05:30:39;;;;;;;5.83;5.17;;;;;;;;;;757512;181;918099;-59
2023/09/02 05:33:05;;;;;;;6.93;5.93;;;;;;;;;;777313;180;921948;-60
2023/09/02 05:35:31;;;;;;;7.43;5.30;;;;;;;;;;769036;180;816569;-65
2023/09/02 05:37:57;;;;;;;7.40;5.20;;;;;;;;;;772476;178;919197;-60
2023/09/02 05:40:23;;;;;;;7.37;4.03;;;;;;;;;;778755;180;921207;-60
2023/09/02 05:42:48;;;;;;;6.67;6.00;;;;;;;;;;771484;178;911133;-65
2023/09/02 05:45:14;;;;;;;5.50;4.50;;;;;;;;;;771912;179;914666;-66
2023/09/02 05:47:40;;;;;;;7.90;5.37;;;;;;;;;;770739;180;924464;-61
2023/09/02 05:50:06;;;;;;;6.67;4.70;;;;;;;;;;751545;187;817189;-66
2023/09/02 05:52:32;;;;;;;6.90;4.37;;;;;;;;;;742518;186;915756;-66
2023/09/02 05:54:58;;;;;;;6.23;4.30;;;;;;;;;;747613;187;919615;-65
2023/09/02 05:57:24;;;;;;;7.40;4.73;;;;;;;;;;746945;187;918779;-60
2023/09/02 05:59:50;;;;;;;11.00;5.93;;;;;;;;;;747981;187;915437;-60
2023/09/02 06:02:16;;;;;;;9.90;4.97;;;;;;;;;;745742;187;904491;-65
2023/09/02 06:04:41;;;;;;;5.50;4.70;;;;;;;;;;750044;187;817974;-61
2023/09/02 06:07:07;;;;;;;7.37;5.00;;;;;;;;;;746885;187;918024;-61
2023/09/02 06:09:33;;;;;;;8.53;4.83;;;;;;;;;;743785;187;918979;-65
2023/09/02 06:11:59;;;;;;;9.17;5.10;;;;;;;;;;745376;187;930911;-66
2023/09/02 06:14:25;;;;;;;5.67;4.63;;;;;;;;;;750872;186;845647;-58
2023/09/02 06:16:51;;;;;;;12.33;5.57;;;;;;;;;;747991;186;917709;-58
2023/09/02 06:19:16;;;;;;;6.23;4.83;;;;;;;;;;750222;184;919151;-63
2023/09/02 06:21:42;;;;;;;9.63;5.70;;;;;;;;;;749102;184;918928;-64
2023/09/02 06:24:08;;;;;;;5.20;4.70;;;;;;;;;;753495;182;821959;-64
2023/09/02 06:26:34;;;;;;;7.50;5.30;;;;;;;;;;752701;181;919118;-65
2023/09/02 06:29:00;;;;;;;6.17;4.53;;;;;;;;;;759999;184;868468;-64
2023/09/02 06:31:26;;;;;;;6.50;4.77;;;;;;;;;;750547;184;919499;-59
2023/09/02 06:33:51;;;;;;;5.97;5.03;;;;;;;;;;749907;181;917826;-64
2023/09/02 06:36:19;;;;;;;6.63;5.40;;;;;;;;;;756214;184;919077;-57
2023/09/02 06:38:43;;;;;;;5.20;3.80;;;;;;;;;;757517;181;921329;-65
2023/09/02 06:41:10;;;;;;;8.40;4.50;;;;;;;;;;753768;184;1017197;-64
2023/09/02 06:43:36;;;;;;;7.47;4.27;;;;;;;;;;750147;181;918909;-59
2023/09/02 06:46:09;;;;;;;7.60;4.50;;;;;;;;;;758511;181;918133;-58
2023/09/02 06:48:34;;;;;;;4.90;3.87;;;;;;;;;;768117;180;928293;-59
2023/09/02 06:51:00;;;;;;;6.10;4.80;;;;;;;;;;772432;178;847621;-63
2023/09/02 06:53:26;;;;;;;5.10;4.13;;;;;;;;;;774731;180;816314;-63
2023/09/02 06:55:52;;;;;;;4.73;3.60;;;;;;;;;;770739;180;919177;-61
2023/09/02 06:58:18;;;;;;;8.20;3.62;;;;;;;;;;772884;180;911426;-59
2023/09/02 07:00:44;;;;;;;4.50;3.40;;;;;;;;;;772884;178;786120;-64
2023/09/02 07:03:09;;;;;;;5.00;3.50;;;;;;;;;;779430;179;818429;-58
2023/09/02 07:05:35;;;;;;;6.17;3.40;;;;;;;;;;774472;177;913389;-59
2023/09/02 07:08:01;;;;;;;7.50;4.80;;;;;;;;;;772077;180;927461;-64
2023/09/02 07:10:27;;;;;;;5.30;3.40;;;;;;;;;;780881;177;914727;-58
2023/09/02 07:12:53;;;;;;;6.30;3.50;;;;;;;;;;774101;180;917227;-58
2023/09/02 07:15:19;;;;;;;4.60;3.00;;;;;;;;;;773853;180;920537;-58
2023/09/02 07:17:46;;;;;;;4.40;3.17;;;;;;;;;;780192;180;817343;-57
2023/09/02 07:20:11;;;;;;;4.63;3.60;;;;;;;;;;772862;180;921057;-64
2023/09/02 07:22:37;;;;;;;6.70;3.00;;;;;;;;;;774011;180;821415;-64
2023/09/02 07:25:03;;;;;;;3.73;2.63;;;;;;;;;;773607;180;816636;-63
2023/09/02 07:27:29;;;;;;;4.37;2.93;;;;;;;;;;772124;181;846224;-63
2023/09/02 07:29:54;;;;;;;3.83;2.20;;;;;;;;;;770760;180;921800;-58
2023/09/02 07:32:20;;;;;;;3.80;2.10;;;;;;;;;;771988;180;914490;-59
2023/09/02 07:34:46;;;;;;;3.17;2.30;;;;;;;;;;770308;181;907568;-62
2023/09/02 07:37:12;;;;;;;6.23;2.83;;;;;;;;;;767929;180;914827;-64
2023/09/02 07:39:38;;;;;;;3.80;2.10;;;;;;;;;;773624;180;914559;-63
2023/09/02 07:42:05;;;;;;;3.93;2.20;;;;;;;;;;778211;179;849898;-64
2023/09/02 07:44:30;;;;;;;3.10;2.30;;;;;;;;;;759232;181;821709;-58
2023/09/02 07:46:56;;;;;;;3.43;2.13;;;;;;;;;;771540;181;922981;-64
2023/09/02 07:49:22;;;;;;;3.93;2.87;;;;;;;;;;774637;181;814740;-59
2023/09/02 07:51:48;;;;;;;3.73;2.30;;;;;;;;;;770313;180;818815;-58
2023/09/02 07:54:14;;;;;;;3.63;2.50;;;;;;;;;;767790;181;919276;-58
2023/09/02 07:56:39;;;;;;;3.10;2.10;;;;;;;;;;772534;180;816425;-58
2023/09/02 07:59:06;;;;;;;3.27;2.47;;;;;;;;;;773445;180;918957;-58
2023/09/02 08:01:31;;;;;;;3.33;2.33;;;;;;;;;;769905;177;921887;-58
2023/09/02 08:03:57;;;;;;;4.70;2.70;;;;;;;;;;771142;180;810454;-63
2023/09/02 08:06:23;;;;;;;7.00;2.83;;;;;;;;;;773789;180;913559;-57
2023/09/02 08:08:49;;;;;;;3.57;2.27;;;;;;;;;;770810;178;914828;-58
2023/09/02 08:11:17;;;;;;;2.80;2.00;;;;;;;;;;769344;179;938663;-57
2023/09/02 08:13:40;;;;;;;3.40;2.03;;;;;;;;;;765546;182;915413;-58
2023/09/02 08:16:06;;;;;;;3.20;2.17;;;;;;;;;;773783;179;886657;-59
2023/09/02 08:18:33;;;;;;;3.67;2.00;;;;;;;;;;775116;176;937990;-64
2023/09/02 08:20:58;;;;;;;3.17;2.10;;;;;;;;;;774932;180;916052;-59
2023/09/02 08:23:24;;;;;;;3.00;2.20;;;;;;;;;;778897;177;1119684;-60
2023/09/02 08:25:50;;;;;;;4.13;2.13;;;;;;;;;;765335;178;916705;-64
2023/09/02 08:28:16;;;;;;;3.37;2.60;;;;;;;;;;774286;180;820750;-59
2023/09/02 08:30:41;;;;;;;3.20;2.40;;;;;;;;;;775193;181;923050;-64
2023/09/02 08:33:07;;;;;;;4.07;2.73;;;;;;;;;;772485;180;918976;-59
2023/09/02 08:35:33;;;;;;;3.13;2.43;;;;;;;;;;766788;181;922597;-59
2023/09/02 08:37:59;;;;;;;4.17;2.33;;;;;;;;;;779171;180;820651;-61
2023/09/02 08:40:25;;;;;;;3.73;2.47;;;;;;;;;;772031;181;805076;-60
2023/09/02 08:42:51;;;;;;;3.80;2.60;;;;;;;;;;775553;178;817583;-58
2023/09/02 08:45:16;;;;;;;3.07;2.30;;;;;;;;;;760045;183;919447;-65
2023/09/02 08:47:42;;;;;;;3.40;2.30;;;;;;;;;;774376;177;642453;-59
2023/09/02 08:50:09;;;;;;;4.70;2.70;;;;;;;;;;771204;178;924463;-59
2023/09/02 08:52:35;;;;;;;3.20;2.10;;;;;;;;;;769586;179;922359;-60
2023/09/02 08:55:00;;;;;;;5.70;2.20;;;;;;;;;;779658;180;921093;-64
2023/09/02 08:57:26;;;;;;;3.30;1.90;;;;;;;;;;771818;180;919047;-66
2023/09/02 08:59:52;;;;;;;7.60;2.80;;;;;;;;;;771549;180;917737;-66
2023/09/02 09:02:19;;;;;;;3.17;2.40;;;;;;;;;;777525;180;918868;-65
2023/09/02 09:04:48;;;;;;;3.23;2.30;;;;;;;;;;771611;178;920484;-60
2023/09/02 09:07:10;;;;;;;4.17;2.83;;;;;;;;;;770055;178;917808;-60
2023/09/02 09:09:36;;;;;;;4.67;2.90;;;;;;;;;;778966;180;919189;-59
2023/09/02 09:12:01;;;;;;;2.80;2.30;;;;;;;;;;769514;180;827963;-66
2023/09/02 09:14:27;;;;;;;3.43;2.03;;;;;;;;;;761317;181;919830;-58
2023/09/02 09:16:53;;;;;;;3.40;2.67;;;;;;;;;;768570;180;919361;-60
2023/09/02 09:19:19;;;;;;;3.47;2.30;;;;;;;;;;773774;177;815385;-65
2023/09/02 09:21:45;;;;;;;4.30;2.10;;;;;;;;;;770503;181;920079;-65
2023/09/02 09:24:12;;;;;;;3.40;2.47;;;;;;;;;;773795;180;912933;-66
2023/09/02 09:26:37;;;;;;;3.27;2.10;;;;;;;;;;780115;180;918884;-59
2023/09/02 09:29:02;;;;;;;4.40;2.13;;;;;;;;;;777863;179;918829;-59
2023/09/02 09:31:28;;;;;;;2.90;2.00;;;;;;;;;;771747;181;919325;-58
2023/09/02 09:33:55;;;;;;;4.20;2.40;;;;;;;;;;775449;181;919186;-66
2023/09/02 09:36:21;;;;;;;6.90;4.77;;;;;;;;;;771908;179;918800;-59
2023/09/02 09:38:47;;;;;;;3.20;2.40;;;;;;;;;;766200;181;919002;-58
2023/09/02 09:41:12;;;;;;;7.43;2.93;;;;;;;;;;772393;180;820170;-65
2023/09/02 09:43:38;;;;;;;5.00;3.30;;;;;;;;;;770996;180;919772;-65
2023/09/02 09:46:04;;;;;;;5.63;2.80;;;;;;;;;;768133;181;818970;-58
2023/09/02 09:48:30;;;;;;;3.40;2.40;;;;;;;;;;770398;181;818065;-59
2023/09/02 09:50:56;;;;;;;2.83;2.23;;;;;;;;;;780213;181;916586;-64
2023/09/02 09:53:23;;;;;;;3.43;2.20;;;;;;;;;;773834;179;924167;-59
2023/09/02 09:55:47;;;;;;;2.95;2.22;;;;;;;;;;773676;179;912178;-59
2023/09/02 09:58:13;;;;;;;3.47;2.17;;;;;;;;;;765176;181;920465;-60
2023/09/02 10:00:39;;;;;;;3.30;2.10;;;;;;;;;;768297;180;915785;-64
2023/09/02 10:03:06;;;;;;;5.80;2.40;;;;;;;;;;771797;180;915311;-64
2023/09/02 10:05:31;;;;;;;5.27;2.37;;;;;;;;;;773389;181;919388;-59
2023/09/02 10:08:05;;;;;;;6.17;3.90;;;;;;;;;;759114;182;920135;-64
2023/09/02 10:10:31;;;;;;;5.60;3.63;;;;;;;;;;774615;178;919132;-60
2023/09/02 10:12:58;;;;;;;4.20;3.20;;;;;;;;;;771794;180;919691;-60
2023/09/02 10:15:26;;;;;;;6.63;3.10;;;;;;;;;;778363;180;919834;-59
2023/09/02 10:17:52;;;;;;;6.87;4.27;;;;;;;;;;775456;181;817304;-59
2023/09/02 10:20:18;;;;;;;2.50;1.67;;;;;;;;;;773139;180;919410;-59
2023/09/02 10:22:44;;;;;;;3.50;2.77;;;;;;;;;;772224;180;1120616;-60
2023/09/02 10:25:16;;;;;;;5.23;2.20;;;;;;;;;;765340;178;819404;-66
2023/09/02 10:27:40;;;;;;;4.17;2.33;;;;;;;;;;765643;181;918157;-60
2023/09/02 10:30:07;;;;;;;4.20;3.00;;;;;;;;;;769452;177;919613;-61
2023/09/02 10:32:33;;;;;;;5.03;2.40;;;;;;;;;;778079;178;932212;-61
2023/09/02 10:35:14;;;;;;;2.50;1.63;;;;;;;;;;764139;181;923662;-65
2023/09/02 10:37:42;;;;;;;3.03;2.10;;;;;;;;;;776771;180;919553;-67
2023/09/02 10:40:08;;;;;;;5.57;3.57;;;;;;;;;;771748;177;916762;-65
2023/09/02 10:42:34;;;;;;;4.47;3.17;;;;;;;;;;774144;177;918330;-64
2023/09/02 10:45:00;;;;;;;3.23;2.27;;;;;;;;;;779223;181;921071;-65
2023/09/02 10:47:26;;;;;;;3.07;2.00;;;;;;;;;;774753;178;876204;-59
2023/09/02 10:49:52;;;;;;;2.73;1.83;;;;;;;;;;773835;180;915627;-60
2023/09/02 10:52:18;;;;;;;2.80;1.80;;;;;;;;;;775276;180;858961;-64
2023/09/02 10:54:49;;;;;;;3.23;2.20;;;;;;;;;;774996;180;914199;-59
2023/09/02 10:57:15;;;;;;;3.00;2.30;;;;;;;;;;775639;179;919301;-60
2023/09/02 10:59:41;;;;;;;4.57;2.27;;;;;;;;;;756898;183;916598;-61
2023/09/02 11:02:07;;;;;;;2.83;1.70;;;;;;;;;;762909;181;923319;-59
2023/09/02 11:04:51;;;;;;;14.93;7.07;;;;;;;;;;769973;180;918564;-59
2023/09/02 11:07:25;;;;;;;11.10;7.30;;;;;;;;;;771044;179;919505;-66
2023/09/02 11:09:51;;;;;;;5.60;3.23;;;;;;;;;;765149;181;925400;-65
2023/09/02 11:12:17;;;;;;;3.40;2.30;;;;;;;;;;770929;181;857842;-60
2023/09/02 11:14:43;;;;;;;3.10;1.97;;;;;;;;;;766474;179;919498;-65
2023/09/02 11:17:15;;;;;;;2.80;1.80;;;;;;;;;;764627;178;817436;-58
2023/09/02 11:19:45;;;;;;;4.67;2.70;;;;;;;;;;773067;180;820742;-59
2023/09/02 11:22:11;;;;;;;4.03;2.60;;;;;;;;;;775845;181;918715;-59
2023/09/02 11:24:37;;;;;;;4.37;2.87;;;;;;;;;;766180;180;819179;-64
2023/09/02 11:27:03;;;;;;;3.20;1.77;;;;;;;;;;768058;181;920238;-64
2023/09/02 11:29:29;;;;;;;3.40;1.60;;;;;;;;;;774044;181;872210;-66
2023/09/02 11:31:56;;;;;;;3.37;1.77;;;;;;;;;;778187;181;918750;-60
2023/09/02 11:34:22;;;;;;;5.00;2.37;;;;;;;;;;761674;181;919385;-60
2023/09/02 11:36:48;;;;;;;3.08;1.98;;;;;;;;;;767730;181;918499;-61
2023/09/02 11:39:14;;;;;;;3.60;1.77;;;;;;;;;;779442;180;917681;-58
2023/09/02 11:41:40;;;;;;;2.43;1.70;;;;;;;;;;758346;184;918645;-63
2023/09/02 11:44:08;;;;;;;5.60;3.33;;;;;;;;;;769070;181;919071;-65
2023/09/02 11:46:35;;;;;;;4.40;1.83;;;;;;;;;;773332;180;916875;-63
2023/09/02 11:49:00;;;;;;;2.90;1.80;;;;;;;;;;767331;178;919114;-58
2023/09/02 11:51:26;;;;;;;3.33;2.00;;;;;;;;;;762631;181;918847;-57
2023/09/02 11:53:52;;;;;;;3.03;1.55;;;;;;;;;;774825;179;918450;-59
2023/09/02 11:56:18;;;;;;;2.57;1.70;;;;;;;;;;781027;179;817169;-63
2023/09/02 11:58:43;;;;;;;3.80;1.80;;;;;;;;;;771574;180;905704;-64
2023/09/02 12:01:09;;;;;;;2.57;1.70;;;;;;;;;;773084;180;919223;-57
2023/09/02 12:03:35;;;;;;;3.40;1.90;;;;;;;;;;777365;180;918488;-58
2023/09/02 12:06:01;;;;;;;3.70;2.50;;;;;;;;;;769955;179;919268;-65
2023/09/02 12:08:27;;;;;;;5.53;3.60;;;;;;;;;;773534;180;922142;-64
2023/09/02 12:10:53;;;;;;;2.77;1.80;;;;;;;;;;777134;180;1328964;-57
2023/09/02 12:13:19;;;;;;;2.80;1.80;;;;;;;;;;769659;180;919348;-58
2023/09/02 12:15:51;;;;;;;2.50;1.50;;;;;;;;;;771583;180;920766;-63
2023/09/02 12:18:16;;;;;;;2.80;1.70;;;;;;;;;;770537;180;920679;-64
2023/09/02 12:20:42;;;;;;;4.23;2.93;;;;;;;;;;776378;180;849737;-64
2023/09/02 12:23:08;;;;;;;4.50;3.03;;;;;;;;;;770836;178;912435;-59
2023/09/02 12:25:35;;;;;;;6.17;3.67;;;;;;;;;;769949;180;919081;-57
2023/09/02 12:28:06;;;;;;;5.57;3.40;;;;;;;;;;779382;178;824302;-64
2023/09/02 12:30:32;;;;;;;3.63;2.37;;;;;;;;;;778263;180;919541;-58
2023/09/02 12:32:58;;;;;;;3.10;1.80;;;;;;;;;;771856;180;916049;-57
2023/09/02 12:35:23;;;;;;;3.23;1.57;;;;;;;;;;773427;181;922070;-63
2023/09/02 12:37:55;;;;;;;3.17;1.83;;;;;;;;;;778426;180;919852;-63
2023/09/02 12:40:21;;;;;;;3.20;1.60;;;;;;;;;;772551;178;900040;-64
2023/09/02 12:42:47;;;;;;;4.70;1.70;;;;;;;;;;773867;180;914980;-58
2023/09/02 12:45:13;;;;;;;2.40;1.30;;;;;;;;;;775476;176;815965;-64
2023/09/02 12:47:39;;;;;;;2.53;1.77;;;;;;;;;;778757;180;818486;-59
2023/09/02 12:50:05;;;;;;;4.40;2.00;;;;;;;;;;771141;180;923053;-58
2023/09/02 12:52:31;;;;;;;3.00;1.73;;;;;;;;;;770584;178;819660;-59
2023/09/02 12:54:57;;;;;;;2.77;1.93;;;;;;;;;;778268;180;817157;-63
2023/09/02 12:57:23;;;;;;;2.40;1.30;;;;;;;;;;770414;179;918083;-64
2023/09/02 12:59:49;;;;;;;3.17;2.27;;;;;;;;;;770991;178;955547;-58
2023/09/02 13:02:15;;;;;;;2.40;1.50;;;;;;;;;;778614;179;915775;-63
2023/09/02 13:04:40;;;;;;;2.70;2.10;;;;;;;;;;766628;180;820417;-64
2023/09/02 13:07:06;;;;;;;5.78;4.18;;;;;;;;;;777049;180;909033;-58
2023/09/02 13:09:32;;;;;;;3.00;1.70;;;;;;;;;;773359;181;919435;-64
2023/09/02 13:11:58;;;;;;;2.47;1.53;;;;;;;;;;772332;181;913815;-59
2023/09/02 13:14:24;;;;;;;3.10;2.17;;;;;;;;;;762957;181;919589;-65
2023/09/02 13:16:50;;;;;;;2.50;1.40;;;;;;;;;;772595;180;918909;-64
2023/09/02 13:19:16;;;;;;;2.70;1.40;;;;;;;;;;778779;177;919345;-64
2023/09/02 13:21:41;;;;;;;2.37;1.43;;;;;;;;;;775589;177;816903;-59
2023/09/02 13:24:07;;;;;;;7.40;1.80;;;;;;;;;;775799;181;722263;-63
2023/09/02 13:26:33;;;;;;;2.43;1.37;;;;;;;;;;771441;181;820248;-64
2023/09/02 13:29:02;;;;;;;3.03;2.13;;;;;;;;;;771152;180;883002;-64
2023/09/02 13:31:28;;;;;;;2.97;1.73;;;;;;;;;;770831;180;921081;-64
2023/09/02 13:33:53;;;;;;;2.70;1.77;;;;;;;;;;772314;180;922700;-59
2023/09/02 13:36:19;;;;;;;2.50;1.70;;;;;;;;;;761220;181;923059;-58
2023/09/02 13:38:45;;;;;;;2.43;1.60;;;;;;;;;;770526;178;921019;-63
2023/09/02 13:41:11;;;;;;;2.60;1.70;;;;;;;;;;770999;180;825884;-65
2023/09/02 13:43:37;;;;;;;3.20;2.20;;;;;;;;;;781282;177;820830;-65
2023/09/02 13:46:05;;;;;;;3.13;1.87;;;;;;;;;;771501;180;919681;-59
2023/09/02 13:48:29;;;;;;;3.40;2.60;;;;;;;;;;774533;180;893902;-59
2023/09/02 13:50:54;;;;;;;4.30;2.40;;;;;;;;;;776789;180;919913;-60
2023/09/02 13:53:22;;;;;;;3.23;1.80;;;;;;;;;;767364;178;907919;-65
2023/09/02 13:55:46;;;;;;;3.97;2.30;;;;;;;;;;768752;179;844692;-59
2023/09/02 13:58:14;;;;;;;3.37;1.80;;;;;;;;;;776079;181;920024;-64
2023/09/02 14:00:40;;;;;;;3.60;2.60;;;;;;;;;;775246;181;920364;-65
2023/09/02 14:03:10;;;;;;;3.23;1.97;;;;;;;;;;771441;179;874832;-63
2023/09/02 14:05:36;;;;;;;4.30;2.20;;;;;;;;;;773335;180;820963;-63
2023/09/02 14:08:02;;;;;;;3.30;2.30;;;;;;;;;;780508;178;919353;-65
2023/09/02 14:10:30;;;;;;;4.40;2.47;;;;;;;;;;776318;180;918491;-58
2023/09/02 14:12:56;;;;;;;3.30;1.53;;;;;;;;;;771654;180;920158;-59
2023/09/02 14:15:21;;;;;;;2.40;1.60;;;;;;;;;;780568;180;886992;-63
2023/09/02 14:17:47;;;;;;;2.60;1.50;;;;;;;;;;776652;180;919229;-58
2023/09/02 14:20:13;;;;;;;2.83;1.57;;;;;;;;;;773220;180;920128;-58
2023/09/02 14:22:39;;;;;;;2.77;1.70;;;;;;;;;;770620;177;925514;-57